sensor_id;sensor_type;location;lat;lon;timestamp;P1;durP1;ratioP1;P2;durP2;ratioP2
42282;SDS011;28237;47.954;21.730;2023-12-14T00:01:21;6.43;;;4.00;;
42282;SDS011;28237;47.954;21.730;2023-12-14T00:03:46;6.95;;;3.50;;
42282;SDS011;28237;47.954;21.730;2023-12-14T00:06:12;9.70;;;4.65;;
42282;SDS011;28237;47.954;21.730;2023-12-14T00:08:37;5.65;;;3.78;;
42282;SDS011;28237;47.954;21.730;2023-12-14T00:11:03;7.05;;;4.13;;
42282;SDS011;28237;47.954;21.730;2023-12-14T00:13:29;5.45;;;3.75;;
42282;SDS011;28237;47.954;21.730;2023-12-14T00:15:54;6.83;;;3.57;;
42282;SDS011;28237;47.954;21.730;2023-12-14T00:18:19;6.93;;;4.57;;
42282;SDS011;28237;47.954;21.730;2023-12-14T00:20:44;4.20;;;3.60;;
42282;SDS011;28237;47.954;21.730;2023-12-14T00:23:10;6.10;;;3.73;;
42282;SDS011;28237;47.954;21.730;2023-12-14T00:25:35;9.43;;;4.57;;
42282;SDS011;28237;47.954;21.730;2023-12-14T00:28:00;7.43;;;4.72;;
42282;SDS011;28237;47.954;21.730;2023-12-14T00:30:26;6.05;;;3.17;;
42282;SDS011;28237;47.954;21.730;2023-12-14T00:32:51;5.63;;;3.97;;
42282;SDS011;28237;47.954;21.730;2023-12-14T00:35:16;6.70;;;3.90;;
42282;SDS011;28237;47.954;21.730;2023-12-14T00:37:42;5.90;;;3.83;;
42282;SDS011;28237;47.954;21.730;2023-12-14T00:40:07;7.50;;;4.97;;
42282;SDS011;28237;47.954;21.730;2023-12-14T00:42:32;5.55;;;3.13;;
42282;SDS011;28237;47.954;21.730;2023-12-14T00:44:58;7.38;;;4.22;;
42282;SDS011;28237;47.954;21.730;2023-12-14T00:47:23;8.10;;;4.50;;
42282;SDS011;28237;47.954;21.730;2023-12-14T00:49:48;5.87;;;4.53;;
42282;SDS011;28237;47.954;21.730;2023-12-14T00:52:13;8.33;;;5.47;;
42282;SDS011;28237;47.954;21.730;2023-12-14T00:54:39;8.30;;;5.30;;
42282;SDS011;28237;47.954;21.730;2023-12-14T00:57:04;9.02;;;6.03;;
42282;SDS011;28237;47.954;21.730;2023-12-14T00:59:29;8.07;;;5.38;;
42282;SDS011;28237;47.954;21.730;2023-12-14T01:01:55;10.13;;;6.07;;
42282;SDS011;28237;47.954;21.730;2023-12-14T01:04:20;7.57;;;5.87;;
42282;SDS011;28237;47.954;21.730;2023-12-14T01:06:45;9.38;;;5.43;;
42282;SDS011;28237;47.954;21.730;2023-12-14T01:09:10;9.32;;;6.03;;
42282;SDS011;28237;47.954;21.730;2023-12-14T01:11:36;8.70;;;5.43;;
42282;SDS011;28237;47.954;21.730;2023-12-14T01:14:01;7.37;;;4.67;;
42282;SDS011;28237;47.954;21.730;2023-12-14T01:16:26;7.57;;;5.57;;
42282;SDS011;28237;47.954;21.730;2023-12-14T01:18:52;9.32;;;5.57;;
42282;SDS011;28237;47.954;21.730;2023-12-14T01:21:17;7.30;;;5.28;;
42282;SDS011;28237;47.954;21.730;2023-12-14T01:23:42;7.60;;;4.77;;
42282;SDS011;28237;47.954;21.730;2023-12-14T01:26:08;8.57;;;5.43;;
42282;SDS011;28237;47.954;21.730;2023-12-14T01:28:34;9.93;;;4.45;;
42282;SDS011;28237;47.954;21.730;2023-12-14T01:30:59;7.55;;;5.13;;
42282;SDS011;28237;47.954;21.730;2023-12-14T01:33:24;8.20;;;5.17;;
42282;SDS011;28237;47.954;21.730;2023-12-14T01:35:50;10.00;;;6.25;;
42282;SDS011;28237;47.954;21.730;2023-12-14T01:38:15;9.60;;;5.57;;
42282;SDS011;28237;47.954;21.730;2023-12-14T01:40:40;9.03;;;6.60;;
42282;SDS011;28237;47.954;21.730;2023-12-14T01:43:06;9.35;;;6.45;;
42282;SDS011;28237;47.954;21.730;2023-12-14T01:45:32;10.18;;;6.50;;
42282;SDS011;28237;47.954;21.730;2023-12-14T01:47:58;10.45;;;7.53;;
42282;SDS011;28237;47.954;21.730;2023-12-14T01:50:23;11.13;;;6.63;;
42282;SDS011;28237;47.954;21.730;2023-12-14T01:52:48;8.90;;;5.93;;
42282;SDS011;28237;47.954;21.730;2023-12-14T01:55:14;9.57;;;6.40;;
42282;SDS011;28237;47.954;21.730;2023-12-14T01:57:39;10.80;;;6.72;;
42282;SDS011;28237;47.954;21.730;2023-12-14T02:00:04;10.48;;;6.63;;
42282;SDS011;28237;47.954;21.730;2023-12-14T02:02:30;11.05;;;7.28;;
42282;SDS011;28237;47.954;21.730;2023-12-14T02:04:56;12.52;;;7.10;;
42282;SDS011;28237;47.954;21.730;2023-12-14T02:07:21;13.07;;;7.43;;
42282;SDS011;28237;47.954;21.730;2023-12-14T02:09:46;12.63;;;8.45;;
42282;SDS011;28237;47.954;21.730;2023-12-14T02:12:12;11.85;;;7.20;;
42282;SDS011;28237;47.954;21.730;2023-12-14T02:14:37;11.30;;;7.35;;
42282;SDS011;28237;47.954;21.730;2023-12-14T02:17:02;16.90;;;7.75;;
42282;SDS011;28237;47.954;21.730;2023-12-14T02:19:27;13.90;;;7.97;;
42282;SDS011;28237;47.954;21.730;2023-12-14T02:21:53;11.20;;;7.83;;
42282;SDS011;28237;47.954;21.730;2023-12-14T02:24:18;14.15;;;8.52;;
42282;SDS011;28237;47.954;21.730;2023-12-14T02:26:43;14.53;;;9.37;;
42282;SDS011;28237;47.954;21.730;2023-12-14T02:29:08;13.20;;;8.40;;
42282;SDS011;28237;47.954;21.730;2023-12-14T02:31:34;12.98;;;9.00;;
42282;SDS011;28237;47.954;21.730;2023-12-14T02:33:59;13.53;;;8.83;;
42282;SDS011;28237;47.954;21.730;2023-12-14T02:36:24;12.50;;;8.48;;
42282;SDS011;28237;47.954;21.730;2023-12-14T02:38:50;10.13;;;7.67;;
42282;SDS011;28237;47.954;21.730;2023-12-14T02:41:15;11.63;;;7.97;;
42282;SDS011;28237;47.954;21.730;2023-12-14T02:43:40;10.10;;;7.13;;
42282;SDS011;28237;47.954;21.730;2023-12-14T02:46:05;10.80;;;7.13;;
42282;SDS011;28237;47.954;21.730;2023-12-14T02:48:31;13.45;;;7.78;;
42282;SDS011;28237;47.954;21.730;2023-12-14T02:50:56;11.00;;;7.73;;
42282;SDS011;28237;47.954;21.730;2023-12-14T02:53:21;13.43;;;8.90;;
42282;SDS011;28237;47.954;21.730;2023-12-14T02:55:47;12.38;;;8.60;;
42282;SDS011;28237;47.954;21.730;2023-12-14T02:58:12;14.47;;;9.13;;
42282;SDS011;28237;47.954;21.730;2023-12-14T03:00:37;15.20;;;8.52;;
42282;SDS011;28237;47.954;21.730;2023-12-14T03:03:03;11.53;;;8.33;;
42282;SDS011;28237;47.954;21.730;2023-12-14T03:05:28;15.43;;;9.18;;
42282;SDS011;28237;47.954;21.730;2023-12-14T03:07:53;14.23;;;8.00;;
42282;SDS011;28237;47.954;21.730;2023-12-14T03:10:18;13.70;;;9.65;;
42282;SDS011;28237;47.954;21.730;2023-12-14T03:12:44;14.45;;;9.50;;
42282;SDS011;28237;47.954;21.730;2023-12-14T03:15:09;14.43;;;9.03;;
42282;SDS011;28237;47.954;21.730;2023-12-14T03:17:34;16.13;;;10.93;;
42282;SDS011;28237;47.954;21.730;2023-12-14T03:20:00;17.00;;;9.47;;
42282;SDS011;28237;47.954;21.730;2023-12-14T03:22:25;15.97;;;9.20;;
42282;SDS011;28237;47.954;21.730;2023-12-14T03:24:50;15.30;;;9.57;;
42282;SDS011;28237;47.954;21.730;2023-12-14T03:27:16;15.57;;;10.32;;
42282;SDS011;28237;47.954;21.730;2023-12-14T03:29:41;14.77;;;9.57;;
42282;SDS011;28237;47.954;21.730;2023-12-14T03:32:06;13.67;;;8.53;;
42282;SDS011;28237;47.954;21.730;2023-12-14T03:34:32;15.70;;;10.07;;
42282;SDS011;28237;47.954;21.730;2023-12-14T03:36:57;16.47;;;9.77;;
42282;SDS011;28237;47.954;21.730;2023-12-14T03:39:22;16.20;;;10.27;;
42282;SDS011;28237;47.954;21.730;2023-12-14T03:41:47;16.35;;;9.98;;
42282;SDS011;28237;47.954;21.730;2023-12-14T03:44:13;16.43;;;10.00;;
42282;SDS011;28237;47.954;21.730;2023-12-14T03:46:38;14.75;;;8.55;;
42282;SDS011;28237;47.954;21.730;2023-12-14T03:49:03;14.70;;;9.67;;
42282;SDS011;28237;47.954;21.730;2023-12-14T03:51:29;16.02;;;8.85;;
42282;SDS011;28237;47.954;21.730;2023-12-14T03:53:54;13.50;;;8.45;;
42282;SDS011;28237;47.954;21.730;2023-12-14T03:56:19;15.45;;;8.43;;
42282;SDS011;28237;47.954;21.730;2023-12-14T03:58:45;12.95;;;8.18;;
42282;SDS011;28237;47.954;21.730;2023-12-14T04:01:19;14.60;;;8.55;;
42282;SDS011;28237;47.954;21.730;2023-12-14T04:03:45;12.35;;;7.95;;
42282;SDS011;28237;47.954;21.730;2023-12-14T04:06:11;11.30;;;7.55;;
42282;SDS011;28237;47.954;21.730;2023-12-14T04:08:36;11.57;;;7.72;;
42282;SDS011;28237;47.954;21.730;2023-12-14T04:11:02;12.70;;;8.07;;
42282;SDS011;28237;47.954;21.730;2023-12-14T04:13:27;13.38;;;7.25;;
42282;SDS011;28237;47.954;21.730;2023-12-14T04:15:52;12.48;;;8.00;;
42282;SDS011;28237;47.954;21.730;2023-12-14T04:18:18;12.90;;;7.43;;
42282;SDS011;28237;47.954;21.730;2023-12-14T04:20:43;13.32;;;8.50;;
42282;SDS011;28237;47.954;21.730;2023-12-14T04:23:08;12.05;;;7.13;;
42282;SDS011;28237;47.954;21.730;2023-12-14T04:25:33;10.80;;;6.47;;
42282;SDS011;28237;47.954;21.730;2023-12-14T04:27:59;12.68;;;6.50;;
42282;SDS011;28237;47.954;21.730;2023-12-14T04:30:24;13.35;;;6.85;;
42282;SDS011;28237;47.954;21.730;2023-12-14T04:32:49;11.57;;;7.38;;
42282;SDS011;28237;47.954;21.730;2023-12-14T04:35:15;11.50;;;6.93;;
42282;SDS011;28237;47.954;21.730;2023-12-14T04:37:41;9.18;;;6.50;;
42282;SDS011;28237;47.954;21.730;2023-12-14T04:40:06;10.75;;;6.88;;
42282;SDS011;28237;47.954;21.730;2023-12-14T04:42:32;13.60;;;7.10;;
42282;SDS011;28237;47.954;21.730;2023-12-14T04:44:57;11.85;;;7.22;;
42282;SDS011;28237;47.954;21.730;2023-12-14T04:47:23;10.97;;;6.73;;
42282;SDS011;28237;47.954;21.730;2023-12-14T04:49:49;10.63;;;6.03;;
42282;SDS011;28237;47.954;21.730;2023-12-14T04:52:14;8.25;;;5.05;;
42282;SDS011;28237;47.954;21.730;2023-12-14T04:54:39;13.37;;;7.50;;
42282;SDS011;28237;47.954;21.730;2023-12-14T04:57:05;10.38;;;6.53;;
42282;SDS011;28237;47.954;21.730;2023-12-14T04:59:30;12.27;;;7.57;;
42282;SDS011;28237;47.954;21.730;2023-12-14T05:01:56;9.18;;;6.13;;
42282;SDS011;28237;47.954;21.730;2023-12-14T05:04:21;10.52;;;6.35;;
42282;SDS011;28237;47.954;21.730;2023-12-14T05:06:46;10.13;;;7.27;;
42282;SDS011;28237;47.954;21.730;2023-12-14T05:09:12;10.88;;;7.28;;
42282;SDS011;28237;47.954;21.730;2023-12-14T05:11:39;12.13;;;7.82;;
42282;SDS011;28237;47.954;21.730;2023-12-14T05:14:04;12.40;;;7.15;;
42282;SDS011;28237;47.954;21.730;2023-12-14T05:16:29;13.32;;;7.80;;
42282;SDS011;28237;47.954;21.730;2023-12-14T05:18:55;10.48;;;6.93;;
42282;SDS011;28237;47.954;21.730;2023-12-14T05:21:22;19.48;;;11.23;;
42282;SDS011;28237;47.954;21.730;2023-12-14T05:23:47;26.73;;;14.93;;
42282;SDS011;28237;47.954;21.730;2023-12-14T05:26:12;18.65;;;9.48;;
42282;SDS011;28237;47.954;21.730;2023-12-14T05:28:38;12.50;;;7.85;;
42282;SDS011;28237;47.954;21.730;2023-12-14T05:31:03;15.30;;;8.83;;
42282;SDS011;28237;47.954;21.730;2023-12-14T05:33:29;13.93;;;7.70;;
42282;SDS011;28237;47.954;21.730;2023-12-14T05:35:56;16.83;;;8.65;;
42282;SDS011;28237;47.954;21.730;2023-12-14T05:38:21;15.48;;;8.40;;
42282;SDS011;28237;47.954;21.730;2023-12-14T05:40:46;27.70;;;8.23;;
42282;SDS011;28237;47.954;21.730;2023-12-14T05:43:12;21.20;;;9.38;;
42282;SDS011;28237;47.954;21.730;2023-12-14T05:45:37;16.65;;;8.20;;
42282;SDS011;28237;47.954;21.730;2023-12-14T05:48:02;24.70;;;9.20;;
42282;SDS011;28237;47.954;21.730;2023-12-14T05:50:30;17.35;;;8.05;;
42282;SDS011;28237;47.954;21.730;2023-12-14T05:52:55;19.15;;;10.07;;
42282;SDS011;28237;47.954;21.730;2023-12-14T05:55:21;18.35;;;9.80;;
42282;SDS011;28237;47.954;21.730;2023-12-14T05:57:49;22.60;;;11.52;;
42282;SDS011;28237;47.954;21.730;2023-12-14T06:00:15;22.23;;;10.05;;
42282;SDS011;28237;47.954;21.730;2023-12-14T06:02:41;18.70;;;7.90;;
42282;SDS011;28237;47.954;21.730;2023-12-14T06:05:06;19.02;;;7.75;;
42282;SDS011;28237;47.954;21.730;2023-12-14T06:07:32;15.77;;;7.22;;
42282;SDS011;28237;47.954;21.730;2023-12-14T06:09:57;11.75;;;6.88;;
42282;SDS011;28237;47.954;21.730;2023-12-14T06:12:22;15.85;;;7.55;;
42282;SDS011;28237;47.954;21.730;2023-12-14T06:14:48;17.30;;;7.93;;
42282;SDS011;28237;47.954;21.730;2023-12-14T06:17:13;19.38;;;8.20;;
42282;SDS011;28237;47.954;21.730;2023-12-14T06:19:38;13.52;;;7.15;;
42282;SDS011;28237;47.954;21.730;2023-12-14T06:22:04;14.05;;;7.43;;
42282;SDS011;28237;47.954;21.730;2023-12-14T06:24:29;13.30;;;8.07;;
42282;SDS011;28237;47.954;21.730;2023-12-14T06:26:54;13.40;;;7.13;;
42282;SDS011;28237;47.954;21.730;2023-12-14T06:29:20;13.50;;;7.55;;
42282;SDS011;28237;47.954;21.730;2023-12-14T06:31:45;19.88;;;10.73;;
42282;SDS011;28237;47.954;21.730;2023-12-14T06:34:11;16.80;;;10.40;;
42282;SDS011;28237;47.954;21.730;2023-12-14T06:36:36;16.33;;;8.02;;
42282;SDS011;28237;47.954;21.730;2023-12-14T06:39:06;11.10;;;8.13;;
42282;SDS011;28237;47.954;21.730;2023-12-14T06:41:32;12.65;;;8.07;;
42282;SDS011;28237;47.954;21.730;2023-12-14T06:43:57;13.07;;;7.82;;
42282;SDS011;28237;47.954;21.730;2023-12-14T06:46:23;12.43;;;8.07;;
42282;SDS011;28237;47.954;21.730;2023-12-14T06:48:48;12.93;;;8.13;;
42282;SDS011;28237;47.954;21.730;2023-12-14T06:51:13;20.33;;;10.63;;
42282;SDS011;28237;47.954;21.730;2023-12-14T06:53:39;14.95;;;8.93;;
42282;SDS011;28237;47.954;21.730;2023-12-14T06:56:05;11.98;;;8.63;;
42282;SDS011;28237;47.954;21.730;2023-12-14T06:58:34;13.02;;;8.35;;
42282;SDS011;28237;47.954;21.730;2023-12-14T07:01:00;11.10;;;8.05;;
42282;SDS011;28237;47.954;21.730;2023-12-14T07:03:25;12.55;;;8.75;;
42282;SDS011;28237;47.954;21.730;2023-12-14T07:05:50;11.63;;;7.32;;
42282;SDS011;28237;47.954;21.730;2023-12-14T07:08:22;10.68;;;7.05;;
42282;SDS011;28237;47.954;21.730;2023-12-14T07:10:48;12.88;;;7.78;;
42282;SDS011;28237;47.954;21.730;2023-12-14T07:13:13;12.40;;;7.70;;
42282;SDS011;28237;47.954;21.730;2023-12-14T07:15:38;11.52;;;7.32;;
42282;SDS011;28237;47.954;21.730;2023-12-14T07:18:04;9.93;;;7.13;;
42282;SDS011;28237;47.954;21.730;2023-12-14T07:20:29;9.82;;;6.72;;
42282;SDS011;28237;47.954;21.730;2023-12-14T07:22:54;7.95;;;6.22;;
42282;SDS011;28237;47.954;21.730;2023-12-14T07:25:20;14.23;;;7.83;;
42282;SDS011;28237;47.954;21.730;2023-12-14T07:27:45;11.23;;;6.80;;
42282;SDS011;28237;47.954;21.730;2023-12-14T07:30:12;10.25;;;7.22;;
42282;SDS011;28237;47.954;21.730;2023-12-14T07:32:37;9.88;;;6.50;;
42282;SDS011;28237;47.954;21.730;2023-12-14T07:35:02;13.87;;;6.93;;
42282;SDS011;28237;47.954;21.730;2023-12-14T07:37:27;11.95;;;6.70;;
42282;SDS011;28237;47.954;21.730;2023-12-14T07:39:53;11.20;;;7.53;;
42282;SDS011;28237;47.954;21.730;2023-12-14T07:42:18;11.18;;;6.88;;
42282;SDS011;28237;47.954;21.730;2023-12-14T07:44:47;10.70;;;6.20;;
42282;SDS011;28237;47.954;21.730;2023-12-14T07:47:12;9.77;;;7.47;;
42282;SDS011;28237;47.954;21.730;2023-12-14T07:49:37;9.95;;;6.88;;
42282;SDS011;28237;47.954;21.730;2023-12-14T07:52:02;10.17;;;6.10;;
42282;SDS011;28237;47.954;21.730;2023-12-14T07:54:28;12.90;;;7.32;;
42282;SDS011;28237;47.954;21.730;2023-12-14T07:56:54;11.23;;;7.43;;
42282;SDS011;28237;47.954;21.730;2023-12-14T07:59:19;11.40;;;7.47;;
42282;SDS011;28237;47.954;21.730;2023-12-14T08:01:44;11.25;;;6.70;;
42282;SDS011;28237;47.954;21.730;2023-12-14T08:04:10;10.73;;;7.30;;
42282;SDS011;28237;47.954;21.730;2023-12-14T08:06:36;10.43;;;7.38;;
42282;SDS011;28237;47.954;21.730;2023-12-14T08:09:04;12.32;;;7.10;;
42282;SDS011;28237;47.954;21.730;2023-12-14T08:11:30;13.38;;;7.43;;
42282;SDS011;28237;47.954;21.730;2023-12-14T08:13:55;11.70;;;6.65;;
42282;SDS011;28237;47.954;21.730;2023-12-14T08:16:21;10.50;;;7.57;;
42282;SDS011;28237;47.954;21.730;2023-12-14T08:18:46;13.35;;;7.43;;
42282;SDS011;28237;47.954;21.730;2023-12-14T08:21:13;13.45;;;8.25;;
42282;SDS011;28237;47.954;21.730;2023-12-14T08:23:38;11.13;;;6.68;;
42282;SDS011;28237;47.954;21.730;2023-12-14T08:26:06;11.07;;;7.00;;
42282;SDS011;28237;47.954;21.730;2023-12-14T08:28:33;11.52;;;7.55;;
42282;SDS011;28237;47.954;21.730;2023-12-14T08:30:58;19.48;;;8.30;;
42282;SDS011;28237;47.954;21.730;2023-12-14T08:33:23;12.40;;;7.30;;
42282;SDS011;28237;47.954;21.730;2023-12-14T08:35:49;29.30;;;15.43;;
42282;SDS011;28237;47.954;21.730;2023-12-14T08:38:15;19.92;;;11.98;;
42282;SDS011;28237;47.954;21.730;2023-12-14T08:40:41;13.63;;;7.70;;
42282;SDS011;28237;47.954;21.730;2023-12-14T08:43:06;12.02;;;8.95;;
42282;SDS011;28237;47.954;21.730;2023-12-14T08:45:32;14.05;;;8.13;;
42282;SDS011;28237;47.954;21.730;2023-12-14T08:47:57;13.02;;;8.48;;
42282;SDS011;28237;47.954;21.730;2023-12-14T08:50:22;15.15;;;9.02;;
42282;SDS011;28237;47.954;21.730;2023-12-14T08:52:48;11.57;;;7.68;;
42282;SDS011;28237;47.954;21.730;2023-12-14T08:55:13;12.65;;;7.97;;
42282;SDS011;28237;47.954;21.730;2023-12-14T08:57:39;12.02;;;7.53;;
42282;SDS011;28237;47.954;21.730;2023-12-14T09:00:05;13.13;;;7.50;;
42282;SDS011;28237;47.954;21.730;2023-12-14T09:02:31;11.30;;;7.10;;
42282;SDS011;28237;47.954;21.730;2023-12-14T09:04:56;10.88;;;6.93;;
42282;SDS011;28237;47.954;21.730;2023-12-14T09:07:22;9.52;;;6.60;;
42282;SDS011;28237;47.954;21.730;2023-12-14T09:09:47;8.33;;;6.30;;
42282;SDS011;28237;47.954;21.730;2023-12-14T09:12:12;11.73;;;7.50;;
42282;SDS011;28237;47.954;21.730;2023-12-14T09:14:38;9.25;;;6.40;;
42282;SDS011;28237;47.954;21.730;2023-12-14T09:17:03;12.10;;;6.53;;
42282;SDS011;28237;47.954;21.730;2023-12-14T09:19:31;9.43;;;5.90;;
42282;SDS011;28237;47.954;21.730;2023-12-14T09:21:57;10.18;;;6.70;;
42282;SDS011;28237;47.954;21.730;2023-12-14T09:24:22;13.32;;;7.00;;
42282;SDS011;28237;47.954;21.730;2023-12-14T09:26:48;8.77;;;6.20;;
42282;SDS011;28237;47.954;21.730;2023-12-14T09:29:13;11.90;;;7.47;;
42282;SDS011;28237;47.954;21.730;2023-12-14T09:31:43;11.77;;;7.32;;
42282;SDS011;28237;47.954;21.730;2023-12-14T09:34:09;9.07;;;6.13;;
42282;SDS011;28237;47.954;21.730;2023-12-14T09:36:34;10.25;;;6.40;;
42282;SDS011;28237;47.954;21.730;2023-12-14T09:38:59;13.50;;;9.10;;
42282;SDS011;28237;47.954;21.730;2023-12-14T09:41:25;12.27;;;7.27;;
42282;SDS011;28237;47.954;21.730;2023-12-14T09:43:51;9.90;;;7.50;;
42282;SDS011;28237;47.954;21.730;2023-12-14T09:46:16;11.57;;;7.80;;
42282;SDS011;28237;47.954;21.730;2023-12-14T09:48:42;9.70;;;6.63;;
42282;SDS011;28237;47.954;21.730;2023-12-14T09:51:07;8.15;;;5.40;;
42282;SDS011;28237;47.954;21.730;2023-12-14T09:53:33;7.93;;;5.80;;
42282;SDS011;28237;47.954;21.730;2023-12-14T09:55:58;6.47;;;5.27;;
42282;SDS011;28237;47.954;21.730;2023-12-14T09:58:23;9.03;;;5.93;;
42282;SDS011;28237;47.954;21.730;2023-12-14T10:00:49;8.48;;;5.82;;
42282;SDS011;28237;47.954;21.730;2023-12-14T10:03:24;6.60;;;5.23;;
42282;SDS011;28237;47.954;21.730;2023-12-14T10:05:51;7.28;;;5.20;;
42282;SDS011;28237;47.954;21.730;2023-12-14T10:08:17;8.10;;;5.28;;
42282;SDS011;28237;47.954;21.730;2023-12-14T10:10:42;8.93;;;5.65;;
42282;SDS011;28237;47.954;21.730;2023-12-14T10:13:08;9.23;;;5.82;;
42282;SDS011;28237;47.954;21.730;2023-12-14T10:15:42;7.37;;;5.50;;
42282;SDS011;28237;47.954;21.730;2023-12-14T10:18:08;9.43;;;5.95;;
42282;SDS011;28237;47.954;21.730;2023-12-14T10:20:33;8.25;;;5.70;;
42282;SDS011;28237;47.954;21.730;2023-12-14T10:22:59;12.43;;;7.70;;
42282;SDS011;28237;47.954;21.730;2023-12-14T10:25:24;11.63;;;7.83;;
42282;SDS011;28237;47.954;21.730;2023-12-14T10:27:50;10.93;;;6.47;;
42282;SDS011;28237;47.954;21.730;2023-12-14T10:30:17;10.95;;;6.75;;
42282;SDS011;28237;47.954;21.730;2023-12-14T10:32:45;8.57;;;5.55;;
42282;SDS011;28237;47.954;21.730;2023-12-14T10:35:11;10.77;;;6.28;;
42282;SDS011;28237;47.954;21.730;2023-12-14T10:37:37;10.13;;;6.55;;
42282;SDS011;28237;47.954;21.730;2023-12-14T10:40:06;9.05;;;6.28;;
42282;SDS011;28237;47.954;21.730;2023-12-14T10:42:31;9.75;;;5.45;;
42282;SDS011;28237;47.954;21.730;2023-12-14T10:44:59;9.38;;;6.45;;
42282;SDS011;28237;47.954;21.730;2023-12-14T10:47:26;8.55;;;5.93;;
42282;SDS011;28237;47.954;21.730;2023-12-14T10:49:52;10.18;;;6.45;;
42282;SDS011;28237;47.954;21.730;2023-12-14T10:52:18;11.35;;;6.88;;
42282;SDS011;28237;47.954;21.730;2023-12-14T10:54:44;9.85;;;6.05;;
42282;SDS011;28237;47.954;21.730;2023-12-14T10:57:10;9.40;;;6.15;;
42282;SDS011;28237;47.954;21.730;2023-12-14T10:59:36;9.65;;;6.78;;
42282;SDS011;28237;47.954;21.730;2023-12-14T11:02:06;12.73;;;6.53;;
42282;SDS011;28237;47.954;21.730;2023-12-14T11:04:40;8.70;;;6.22;;
42282;SDS011;28237;47.954;21.730;2023-12-14T11:07:17;9.88;;;7.00;;
42282;SDS011;28237;47.954;21.730;2023-12-14T11:09:44;9.63;;;5.97;;
42282;SDS011;28237;47.954;21.730;2023-12-14T11:12:09;8.95;;;5.82;;
42282;SDS011;28237;47.954;21.730;2023-12-14T11:14:36;9.95;;;5.53;;
42282;SDS011;28237;47.954;21.730;2023-12-14T11:17:06;13.30;;;6.38;;
42282;SDS011;28237;47.954;21.730;2023-12-14T11:19:31;7.85;;;5.43;;
42282;SDS011;28237;47.954;21.730;2023-12-14T11:22:10;7.97;;;6.10;;
42282;SDS011;28237;47.954;21.730;2023-12-14T11:24:37;11.30;;;6.28;;
42282;SDS011;28237;47.954;21.730;2023-12-14T11:27:06;10.57;;;6.75;;
42282;SDS011;28237;47.954;21.730;2023-12-14T11:29:31;10.10;;;6.82;;
42282;SDS011;28237;47.954;21.730;2023-12-14T11:31:57;11.52;;;7.38;;
42282;SDS011;28237;47.954;21.730;2023-12-14T11:34:25;13.27;;;7.70;;
42282;SDS011;28237;47.954;21.730;2023-12-14T11:36:51;10.52;;;7.18;;
42282;SDS011;28237;47.954;21.730;2023-12-14T11:39:16;9.23;;;5.57;;
42282;SDS011;28237;47.954;21.730;2023-12-14T11:41:41;11.65;;;7.18;;
42282;SDS011;28237;47.954;21.730;2023-12-14T11:44:07;11.15;;;7.82;;
42282;SDS011;28237;47.954;21.730;2023-12-14T11:46:32;13.02;;;7.93;;
42282;SDS011;28237;47.954;21.730;2023-12-14T11:48:58;9.52;;;7.50;;
42282;SDS011;28237;47.954;21.730;2023-12-14T11:51:23;12.23;;;7.88;;
42282;SDS011;28237;47.954;21.730;2023-12-14T11:53:50;10.73;;;7.53;;
42282;SDS011;28237;47.954;21.730;2023-12-14T11:56:19;12.02;;;7.70;;
42282;SDS011;28237;47.954;21.730;2023-12-14T11:58:45;11.43;;;7.13;;
42282;SDS011;28237;47.954;21.730;2023-12-14T12:01:11;13.05;;;8.85;;
42282;SDS011;28237;47.954;21.730;2023-12-14T12:03:37;11.15;;;8.27;;
42282;SDS011;28237;47.954;21.730;2023-12-14T12:06:02;17.80;;;7.00;;
42282;SDS011;28237;47.954;21.730;2023-12-14T12:08:27;9.05;;;5.70;;
42282;SDS011;28237;47.954;21.730;2023-12-14T12:10:53;10.18;;;6.55;;
42282;SDS011;28237;47.954;21.730;2023-12-14T12:13:21;10.98;;;7.13;;
42282;SDS011;28237;47.954;21.730;2023-12-14T12:15:47;8.90;;;6.80;;
42282;SDS011;28237;47.954;21.730;2023-12-14T12:18:13;9.65;;;6.57;;
42282;SDS011;28237;47.954;21.730;2023-12-14T12:20:38;10.00;;;6.45;;
42282;SDS011;28237;47.954;21.730;2023-12-14T12:23:04;9.88;;;7.18;;
42282;SDS011;28237;47.954;21.730;2023-12-14T12:25:30;8.77;;;6.72;;
42282;SDS011;28237;47.954;21.730;2023-12-14T12:27:58;9.13;;;6.90;;
42282;SDS011;28237;47.954;21.730;2023-12-14T12:30:24;10.13;;;7.32;;
42282;SDS011;28237;47.954;21.730;2023-12-14T12:32:49;9.23;;;6.55;;
42282;SDS011;28237;47.954;21.730;2023-12-14T12:35:18;10.52;;;6.13;;
42282;SDS011;28237;47.954;21.730;2023-12-14T12:37:43;8.80;;;6.53;;
42282;SDS011;28237;47.954;21.730;2023-12-14T12:40:09;9.95;;;6.97;;
42282;SDS011;28237;47.954;21.730;2023-12-14T12:42:35;10.68;;;7.18;;
42282;SDS011;28237;47.954;21.730;2023-12-14T12:45:00;10.00;;;6.53;;
42282;SDS011;28237;47.954;21.730;2023-12-14T12:47:25;9.43;;;6.07;;
42282;SDS011;28237;47.954;21.730;2023-12-14T12:49:51;11.57;;;7.40;;
42282;SDS011;28237;47.954;21.730;2023-12-14T12:52:16;10.75;;;7.82;;
42282;SDS011;28237;47.954;21.730;2023-12-14T12:54:41;9.80;;;6.35;;
42282;SDS011;28237;47.954;21.730;2023-12-14T12:57:07;7.65;;;5.63;;
42282;SDS011;28237;47.954;21.730;2023-12-14T12:59:32;10.63;;;6.10;;
42282;SDS011;28237;47.954;21.730;2023-12-14T13:01:58;16.05;;;9.18;;
42282;SDS011;28237;47.954;21.730;2023-12-14T13:04:24;13.10;;;7.97;;
42282;SDS011;28237;47.954;21.730;2023-12-14T13:06:51;12.98;;;7.20;;
42282;SDS011;28237;47.954;21.730;2023-12-14T13:09:16;29.40;;;14.02;;
42282;SDS011;28237;47.954;21.730;2023-12-14T13:11:42;18.75;;;12.52;;
42282;SDS011;28237;47.954;21.730;2023-12-14T13:14:08;12.20;;;8.65;;
42282;SDS011;28237;47.954;21.730;2023-12-14T13:16:34;26.40;;;14.02;;
42282;SDS011;28237;47.954;21.730;2023-12-14T13:18:59;21.95;;;12.82;;
42282;SDS011;28237;47.954;21.730;2023-12-14T13:21:24;15.45;;;10.63;;
42282;SDS011;28237;47.954;21.730;2023-12-14T13:23:50;10.65;;;7.30;;
42282;SDS011;28237;47.954;21.730;2023-12-14T13:26:16;10.85;;;7.13;;
42282;SDS011;28237;47.954;21.730;2023-12-14T13:28:41;12.20;;;7.38;;
42282;SDS011;28237;47.954;21.730;2023-12-14T13:31:06;9.63;;;6.43;;
42282;SDS011;28237;47.954;21.730;2023-12-14T13:33:31;11.30;;;7.18;;
42282;SDS011;28237;47.954;21.730;2023-12-14T13:35:57;10.57;;;6.97;;
42282;SDS011;28237;47.954;21.730;2023-12-14T13:38:22;9.57;;;6.47;;
42282;SDS011;28237;47.954;21.730;2023-12-14T13:40:47;10.47;;;7.33;;
42282;SDS011;28237;47.954;21.730;2023-12-14T13:43:13;12.97;;;6.50;;
42282;SDS011;28237;47.954;21.730;2023-12-14T13:45:38;8.50;;;5.80;;
42282;SDS011;28237;47.954;21.730;2023-12-14T13:48:04;11.73;;;6.97;;
42282;SDS011;28237;47.954;21.730;2023-12-14T13:50:29;9.60;;;6.30;;
42282;SDS011;28237;47.954;21.730;2023-12-14T13:52:54;7.27;;;5.27;;
42282;SDS011;28237;47.954;21.730;2023-12-14T13:55:20;8.90;;;6.03;;
42282;SDS011;28237;47.954;21.730;2023-12-14T13:57:46;11.73;;;5.78;;
42282;SDS011;28237;47.954;21.730;2023-12-14T14:00:12;12.00;;;6.53;;
42282;SDS011;28237;47.954;21.730;2023-12-14T14:02:38;9.07;;;5.20;;
42282;SDS011;28237;47.954;21.730;2023-12-14T14:05:03;8.47;;;5.90;;
42282;SDS011;28237;47.954;21.730;2023-12-14T14:07:29;9.88;;;6.82;;
42282;SDS011;28237;47.954;21.730;2023-12-14T14:09:54;10.43;;;6.40;;
42282;SDS011;28237;47.954;21.730;2023-12-14T14:12:20;11.35;;;7.35;;
42282;SDS011;28237;47.954;21.730;2023-12-14T14:14:45;11.27;;;6.60;;
42282;SDS011;28237;47.954;21.730;2023-12-14T14:17:10;9.85;;;6.20;;